sensor_id;sensor_type;location;lat;lon;timestamp;temperature;humidity
1976;DHT22;988;48.016;7.800;2022-11-09T00:01:37;13.40;99.90
1976;DHT22;988;48.016;7.800;2022-11-09T00:04:04;13.70;99.90
1976;DHT22;988;48.016;7.800;2022-11-09T00:06:30;13.70;99.90
1976;DHT22;988;48.016;7.800;2022-11-09T00:08:58;13.50;99.90
1976;DHT22;988;48.016;7.800;2022-11-09T00:11:24;13.40;99.90
1976;DHT22;988;48.016;7.800;2022-11-09T00:13:50;13.60;99.90
1976;DHT22;988;48.016;7.800;2022-11-09T00:16:18;13.50;99.90
1976;DHT22;988;48.016;7.800;2022-11-09T00:18:44;13.40;99.90
1976;DHT22;988;48.016;7.800;2022-11-09T00:21:15;13.60;99.90
1976;DHT22;988;48.016;7.800;2022-11-09T00:23:40;13.70;99.90
1976;DHT22;988;48.016;7.800;2022-11-09T00:26:07;13.80;99.90
1976;DHT22;988;48.016;7.800;2022-11-09T00:28:34;13.60;99.90
1976;DHT22;988;48.016;7.800;2022-11-09T00:31:03;13.60;99.90
1976;DHT22;988;48.016;7.800;2022-11-09T00:33:30;13.50;99.90
1976;DHT22;988;48.016;7.800;2022-11-09T00:35:55;13.50;99.90
1976;DHT22;988;48.016;7.800;2022-11-09T00:38:21;13.50;99.90
1976;DHT22;988;48.016;7.800;2022-11-09T00:40:47;13.60;99.90
1976;DHT22;988;48.016;7.800;2022-11-09T00:43:12;13.60;99.90
1976;DHT22;988;48.016;7.800;2022-11-09T00:45:38;13.70;99.90
1976;DHT22;988;48.016;7.800;2022-11-09T00:48:05;13.60;99.90
1976;DHT22;988;48.016;7.800;2022-11-09T00:50:31;13.70;99.90
1976;DHT22;988;48.016;7.800;2022-11-09T00:52:57;13.70;99.90
1976;DHT22;988;48.016;7.800;2022-11-09T00:55:22;13.60;99.90
1976;DHT22;988;48.016;7.800;2022-11-09T00:57:49;13.80;99.90
1976;DHT22;988;48.016;7.800;2022-11-09T01:00:20;13.80;99.90
1976;DHT22;988;48.016;7.800;2022-11-09T01:02:46;13.80;99.90
1976;DHT22;988;48.016;7.800;2022-11-09T01:05:12;13.80;99.90
1976;DHT22;988;48.016;7.800;2022-11-09T01:07:38;13.80;99.90
1976;DHT22;988;48.016;7.800;2022-11-09T01:10:04;13.80;99.90
1976;DHT22;988;48.016;7.800;2022-11-09T01:12:30;13.70;99.90
1976;DHT22;988;48.016;7.800;2022-11-09T01:14:56;13.80;99.90
1976;DHT22;988;48.016;7.800;2022-11-09T01:17:21;14.00;99.90
1976;DHT22;988;48.016;7.800;2022-11-09T01:19:48;14.00;99.90
1976;DHT22;988;48.016;7.800;2022-11-09T01:22:14;14.10;99.90
1976;DHT22;988;48.016;7.800;2022-11-09T01:24:39;14.10;99.90
1976;DHT22;988;48.016;7.800;2022-11-09T01:27:05;14.10;99.90
1976;DHT22;988;48.016;7.800;2022-11-09T01:29:30;14.10;99.90
1976;DHT22;988;48.016;7.800;2022-11-09T01:31:56;14.10;99.90
1976;DHT22;988;48.016;7.800;2022-11-09T01:34:22;14.20;99.90
1976;DHT22;988;48.016;7.800;2022-11-09T01:36:51;14.20;99.90
1976;DHT22;988;48.016;7.800;2022-11-09T01:39:17;14.20;99.90
1976;DHT22;988;48.016;7.800;2022-11-09T01:41:44;14.30;99.90
1976;DHT22;988;48.016;7.800;2022-11-09T01:44:14;14.20;99.90
1976;DHT22;988;48.016;7.800;2022-11-09T01:49:45;14.30;99.90
1976;DHT22;988;48.016;7.800;2022-11-09T01:54:42;14.20;99.90
1976;DHT22;988;48.016;7.800;2022-11-09T01:57:14;14.20;99.90
1976;DHT22;988;48.016;7.800;2022-11-09T01:59:43;14.40;99.90
1976;DHT22;988;48.016;7.800;2022-11-09T02:02:12;14.60;99.90
1976;DHT22;988;48.016;7.800;2022-11-09T02:04:42;14.60;99.90
1976;DHT22;988;48.016;7.800;2022-11-09T02:07:09;14.50;99.90
1976;DHT22;988;48.016;7.800;2022-11-09T02:09:53;14.40;99.90
1976;DHT22;988;48.016;7.800;2022-11-09T02:12:21;14.40;99.90
1976;DHT22;988;48.016;7.800;2022-11-09T02:14:49;14.30;99.90
1976;DHT22;988;48.016;7.800;2022-11-09T02:17:17;14.30;99.90
1976;DHT22;988;48.016;7.800;2022-11-09T02:19:43;14.40;99.90
1976;DHT22;988;48.016;7.800;2022-11-09T02:22:08;14.40;99.90
1976;DHT22;988;48.016;7.800;2022-11-09T02:24:34;14.30;99.90
1976;DHT22;988;48.016;7.800;2022-11-09T02:27:00;14.40;99.90
1976;DHT22;988;48.016;7.800;2022-11-09T02:29:31;14.30;99.90
1976;DHT22;988;48.016;7.800;2022-11-09T02:32:01;14.50;99.90
1976;DHT22;988;48.016;7.800;2022-11-09T02:34:27;14.60;99.90
1976;DHT22;988;48.016;7.800;2022-11-09T02:36:53;14.50;99.90
1976;DHT22;988;48.016;7.800;2022-11-09T02:39:21;14.60;99.90
1976;DHT22;988;48.016;7.800;2022-11-09T02:42:14;14.60;99.90
1976;DHT22;988;48.016;7.800;2022-11-09T02:44:44;14.60;99.90
1976;DHT22;988;48.016;7.800;2022-11-09T02:47:10;14.50;99.90
1976;DHT22;988;48.016;7.800;2022-11-09T02:49:36;14.60;99.90
1976;DHT22;988;48.016;7.800;2022-11-09T02:52:01;14.50;99.90
1976;DHT22;988;48.016;7.800;2022-11-09T02:54:27;14.40;99.90
1976;DHT22;988;48.016;7.800;2022-11-09T02:56:53;14.40;99.90
1976;DHT22;988;48.016;7.800;2022-11-09T02:59:18;14.50;99.90
1976;DHT22;988;48.016;7.800;2022-11-09T03:01:44;14.50;99.90
1976;DHT22;988;48.016;7.800;2022-11-09T03:04:09;14.60;99.90
1976;DHT22;988;48.016;7.800;2022-11-09T03:06:35;14.50;99.90
1976;DHT22;988;48.016;7.800;2022-11-09T03:09:06;14.50;99.90
1976;DHT22;988;48.016;7.800;2022-11-09T03:11:34;14.50;99.90
1976;DHT22;988;48.016;7.800;2022-11-09T03:14:00;14.50;99.90
1976;DHT22;988;48.016;7.800;2022-11-09T03:16:25;14.50;99.90
1976;DHT22;988;48.016;7.800;2022-11-09T03:18:51;14.60;99.90
1976;DHT22;988;48.016;7.800;2022-11-09T03:21:17;14.50;99.90
1976;DHT22;988;48.016;7.800;2022-11-09T03:23:44;14.50;99.90
1976;DHT22;988;48.016;7.800;2022-11-09T03:26:19;14.50;99.90
1976;DHT22;988;48.016;7.800;2022-11-09T03:28:44;14.50;99.90
1976;DHT22;988;48.016;7.800;2022-11-09T03:31:10;14.50;99.90
1976;DHT22;988;48.016;7.800;2022-11-09T03:33:36;14.40;99.90
1976;DHT22;988;48.016;7.800;2022-11-09T03:36:01;14.40;99.90
1976;DHT22;988;48.016;7.800;2022-11-09T03:38:27;14.40;99.90
1976;DHT22;988;48.016;7.800;2022-11-09T03:40:53;14.50;99.90
1976;DHT22;988;48.016;7.800;2022-11-09T03:43:18;14.60;99.90
1976;DHT22;988;48.016;7.800;2022-11-09T03:45:45;14.70;99.90
1976;DHT22;988;48.016;7.800;2022-11-09T03:48:11;14.50;99.90
1976;DHT22;988;48.016;7.800;2022-11-09T03:50:37;14.40;99.90
1976;DHT22;988;48.016;7.800;2022-11-09T03:53:05;14.60;99.90
1976;DHT22;988;48.016;7.800;2022-11-09T03:55:32;14.40;99.90
1976;DHT22;988;48.016;7.800;2022-11-09T03:57:57;14.40;99.90
1976;DHT22;988;48.016;7.800;2022-11-09T04:00:23;14.50;99.90
1976;DHT22;988;48.016;7.800;2022-11-09T04:02:49;14.40;99.90
1976;DHT22;988;48.016;7.800;2022-11-09T04:05:15;14.30;99.90
1976;DHT22;988;48.016;7.800;2022-11-09T04:07:51;14.30;99.90
1976;DHT22;988;48.016;7.800;2022-11-09T04:10:17;14.30;99.90
1976;DHT22;988;48.016;7.800;2022-11-09T04:12:44;14.30;99.90
1976;DHT22;988;48.016;7.800;2022-11-09T04:15:10;14.30;99.90
1976;DHT22;988;48.016;7.800;2022-11-09T04:17:36;14.30;99.90
1976;DHT22;988;48.016;7.800;2022-11-09T04:20:03;14.30;99.90
1976;DHT22;988;48.016;7.800;2022-11-09T04:22:28;14.40;99.90
1976;DHT22;988;48.016;7.800;2022-11-09T04:24:54;14.40;99.90
1976;DHT22;988;48.016;7.800;2022-11-09T04:27:19;14.30;99.90
1976;DHT22;988;48.016;7.800;2022-11-09T04:29:45;14.30;99.90
1976;DHT22;988;48.016;7.800;2022-11-09T04:32:10;14.40;99.90
1976;DHT22;988;48.016;7.800;2022-11-09T04:34:36;14.40;99.90
1976;DHT22;988;48.016;7.800;2022-11-09T04:37:02;14.60;99.90
1976;DHT22;988;48.016;7.800;2022-11-09T04:39:27;14.40;99.90
1976;DHT22;988;48.016;7.800;2022-11-09T04:41:53;14.40;99.90
1976;DHT22;988;48.016;7.800;2022-11-09T04:44:18;14.50;99.90
1976;DHT22;988;48.016;7.800;2022-11-09T04:46:44;14.60;99.90
1976;DHT22;988;48.016;7.800;2022-11-09T04:49:09;14.40;99.90
1976;DHT22;988;48.016;7.800;2022-11-09T04:51:35;14.50;99.90
1976;DHT22;988;48.016;7.800;2022-11-09T04:54:00;14.40;99.90
1976;DHT22;988;48.016;7.800;2022-11-09T04:56:26;14.40;99.90
1976;DHT22;988;48.016;7.800;2022-11-09T04:58:52;14.40;99.90
1976;DHT22;988;48.016;7.800;2022-11-09T05:01:17;14.50;99.90
1976;DHT22;988;48.016;7.800;2022-11-09T05:03:43;14.40;99.90
1976;DHT22;988;48.016;7.800;2022-11-09T05:06:11;14.40;99.90
1976;DHT22;988;48.016;7.800;2022-11-09T05:08:55;14.40;99.90
1976;DHT22;988;48.016;7.800;2022-11-09T05:11:21;14.40;99.90
1976;DHT22;988;48.016;7.800;2022-11-09T05:13:47;14.40;99.90
1976;DHT22;988;48.016;7.800;2022-11-09T05:16:13;14.40;99.90
1976;DHT22;988;48.016;7.800;2022-11-09T05:18:41;14.40;99.90
1976;DHT22;988;48.016;7.800;2022-11-09T05:21:07;14.40;99.90
1976;DHT22;988;48.016;7.800;2022-11-09T05:23:33;14.40;99.90
1976;DHT22;988;48.016;7.800;2022-11-09T05:26:17;14.40;99.90
1976;DHT22;988;48.016;7.800;2022-11-09T05:28:42;14.40;99.90
1976;DHT22;988;48.016;7.800;2022-11-09T05:31:09;14.30;99.90
1976;DHT22;988;48.016;7.800;2022-11-09T05:33:34;14.30;99.90
1976;DHT22;988;48.016;7.800;2022-11-09T05:36:00;14.10;99.90
1976;DHT22;988;48.016;7.800;2022-11-09T05:38:25;14.30;99.90
1976;DHT22;988;48.016;7.800;2022-11-09T05:40:52;14.30;99.90
1976;DHT22;988;48.016;7.800;2022-11-09T05:43:18;14.20;99.90
1976;DHT22;988;48.016;7.800;2022-11-09T05:45:44;14.10;99.90
1976;DHT22;988;48.016;7.800;2022-11-09T05:48:15;14.20;99.90
1976;DHT22;988;48.016;7.800;2022-11-09T05:50:41;14.20;99.90
1976;DHT22;988;48.016;7.800;2022-11-09T05:53:08;14.30;99.90
1976;DHT22;988;48.016;7.800;2022-11-09T05:55:34;14.30;99.90
1976;DHT22;988;48.016;7.800;2022-11-09T05:58:00;14.30;99.90
1976;DHT22;988;48.016;7.800;2022-11-09T06:00:26;14.30;99.90
1976;DHT22;988;48.016;7.800;2022-11-09T06:02:52;14.20;99.90
1976;DHT22;988;48.016;7.800;2022-11-09T06:05:17;14.20;99.90
1976;DHT22;988;48.016;7.800;2022-11-09T06:07:45;14.30;99.90
1976;DHT22;988;48.016;7.800;2022-11-09T06:10:10;14.20;99.90
1976;DHT22;988;48.016;7.800;2022-11-09T06:12:36;14.20;99.90
1976;DHT22;988;48.016;7.800;2022-11-09T06:15:02;14.20;99.90
1976;DHT22;988;48.016;7.800;2022-11-09T06:17:28;14.10;99.90
1976;DHT22;988;48.016;7.800;2022-11-09T06:19:54;14.40;99.90
1976;DHT22;988;48.016;7.800;2022-11-09T06:22:19;14.40;99.90
1976;DHT22;988;48.016;7.800;2022-11-09T06:24:45;14.60;99.90
1976;DHT22;988;48.016;7.800;2022-11-09T06:27:10;14.70;99.90
1976;DHT22;988;48.016;7.800;2022-11-09T06:29:36;14.90;99.90
1976;DHT22;988;48.016;7.800;2022-11-09T06:32:01;14.80;99.90
1976;DHT22;988;48.016;7.800;2022-11-09T06:34:27;14.90;99.90
1976;DHT22;988;48.016;7.800;2022-11-09T06:36:54;15.10;99.90
1976;DHT22;988;48.016;7.800;2022-11-09T06:39:20;15.00;99.90
1976;DHT22;988;48.016;7.800;2022-11-09T06:41:46;15.20;99.90
1976;DHT22;988;48.016;7.800;2022-11-09T06:44:11;15.20;99.90
1976;DHT22;988;48.016;7.800;2022-11-09T06:46:37;15.10;99.90
1976;DHT22;988;48.016;7.800;2022-11-09T06:49:02;15.10;99.90
1976;DHT22;988;48.016;7.800;2022-11-09T06:51:28;15.30;99.90
1976;DHT22;988;48.016;7.800;2022-11-09T06:53:54;15.40;99.90
1976;DHT22;988;48.016;7.800;2022-11-09T06:56:20;15.40;99.90
1976;DHT22;988;48.016;7.800;2022-11-09T06:58:45;15.30;99.90
1976;DHT22;988;48.016;7.800;2022-11-09T07:01:14;15.40;99.90
1976;DHT22;988;48.016;7.800;2022-11-09T07:03:41;15.50;99.90
1976;DHT22;988;48.016;7.800;2022-11-09T07:06:09;15.50;99.90
1976;DHT22;988;48.016;7.800;2022-11-09T07:08:36;15.50;99.90
1976;DHT22;988;48.016;7.800;2022-11-09T07:11:07;15.40;99.90
1976;DHT22;988;48.016;7.800;2022-11-09T07:13:33;15.50;99.90
1976;DHT22;988;48.016;7.800;2022-11-09T07:15:59;15.50;99.90
1976;DHT22;988;48.016;7.800;2022-11-09T07:18:24;15.50;99.90
1976;DHT22;988;48.016;7.800;2022-11-09T07:20:50;15.50;99.90
1976;DHT22;988;48.016;7.800;2022-11-09T07:23:16;15.80;99.90
1976;DHT22;988;48.016;7.800;2022-11-09T07:25:41;15.70;99.90
1976;DHT22;988;48.016;7.800;2022-11-09T07:28:08;15.70;99.90
1976;DHT22;988;48.016;7.800;2022-11-09T07:30:35;15.80;99.90
1976;DHT22;988;48.016;7.800;2022-11-09T07:33:01;15.80;99.90
1976;DHT22;988;48.016;7.800;2022-11-09T07:35:27;15.90;99.90
1976;DHT22;988;48.016;7.800;2022-11-09T07:37:53;15.70;99.90
1976;DHT22;988;48.016;7.800;2022-11-09T07:40:19;15.70;99.90
1976;DHT22;988;48.016;7.800;2022-11-09T07:42:45;15.60;99.90
1976;DHT22;988;48.016;7.800;2022-11-09T07:45:11;15.70;99.90
1976;DHT22;988;48.016;7.800;2022-11-09T07:47:36;15.80;99.90
1976;DHT22;988;48.016;7.800;2022-11-09T07:50:03;15.90;99.90
1976;DHT22;988;48.016;7.800;2022-11-09T07:52:28;15.80;99.90
1976;DHT22;988;48.016;7.800;2022-11-09T07:54:54;15.90;99.90
1976;DHT22;988;48.016;7.800;2022-11-09T07:57:19;16.20;99.90
1976;DHT22;988;48.016;7.800;2022-11-09T07:59:45;16.10;99.90
1976;DHT22;988;48.016;7.800;2022-11-09T08:02:11;16.20;99.90
1976;DHT22;988;48.016;7.800;2022-11-09T08:04:36;16.30;99.90
1976;DHT22;988;48.016;7.800;2022-11-09T08:07:02;16.50;99.90
1976;DHT22;988;48.016;7.800;2022-11-09T08:09:28;16.20;99.90
1976;DHT22;988;48.016;7.800;2022-11-09T08:11:54;16.20;99.90
1976;DHT22;988;48.016;7.800;2022-11-09T08:14:19;16.30;99.90
1976;DHT22;988;48.016;7.800;2022-11-09T08:16:45;16.30;99.90
1976;DHT22;988;48.016;7.800;2022-11-09T08:19:11;16.40;99.90
1976;DHT22;988;48.016;7.800;2022-11-09T08:21:36;16.70;99.90
1976;DHT22;988;48.016;7.800;2022-11-09T08:24:03;16.70;99.90
1976;DHT22;988;48.016;7.800;2022-11-09T08:26:30;16.80;99.90
1976;DHT22;988;48.016;7.800;2022-11-09T08:28:55;17.00;99.90
1976;DHT22;988;48.016;7.800;2022-11-09T08:31:21;16.80;99.90
1976;DHT22;988;48.016;7.800;2022-11-09T08:33:47;17.30;99.90
1976;DHT22;988;48.016;7.800;2022-11-09T08:36:14;17.50;99.90
1976;DHT22;988;48.016;7.800;2022-11-09T08:38:41;18.30;99.90
1976;DHT22;988;48.016;7.800;2022-11-09T08:41:07;18.50;99.90
1976;DHT22;988;48.016;7.800;2022-11-09T08:43:33;18.70;99.90
1976;DHT22;988;48.016;7.800;2022-11-09T08:45:58;19.70;99.90
1976;DHT22;988;48.016;7.800;2022-11-09T08:48:24;21.70;99.90
1976;DHT22;988;48.016;7.800;2022-11-09T08:50:54;23.30;99.90
1976;DHT22;988;48.016;7.800;2022-11-09T08:53:21;24.00;90.90
1976;DHT22;988;48.016;7.800;2022-11-09T08:55:47;23.20;89.70
1976;DHT22;988;48.016;7.800;2022-11-09T08:58:12;21.50;90.80
1976;DHT22;988;48.016;7.800;2022-11-09T09:00:38;20.40;93.70
1976;DHT22;988;48.016;7.800;2022-11-09T09:03:07;19.50;95.70
1976;DHT22;988;48.016;7.800;2022-11-09T09:05:36;19.40;97.30
1976;DHT22;988;48.016;7.800;2022-11-09T09:08:03;19.30;97.60
1976;DHT22;988;48.016;7.800;2022-11-09T09:10:29;19.20;97.70
1976;DHT22;988;48.016;7.800;2022-11-09T09:12:56;19.40;98.00
1976;DHT22;988;48.016;7.800;2022-11-09T09:15:22;19.60;98.50
1976;DHT22;988;48.016;7.800;2022-11-09T09:17:49;20.40;95.80
1976;DHT22;988;48.016;7.800;2022-11-09T09:20:14;21.00;95.00
1976;DHT22;988;48.016;7.800;2022-11-09T09:22:41;21.90;93.00
1976;DHT22;988;48.016;7.800;2022-11-09T09:25:08;21.70;92.20
1976;DHT22;988;48.016;7.800;2022-11-09T09:27:34;21.30;93.20
1976;DHT22;988;48.016;7.800;2022-11-09T09:30:00;21.00;95.30
1976;DHT22;988;48.016;7.800;2022-11-09T09:32:25;20.60;93.70
1976;DHT22;988;48.016;7.800;2022-11-09T09:34:51;20.30;93.60
1976;DHT22;988;48.016;7.800;2022-11-09T09:37:17;19.90;94.40
1976;DHT22;988;48.016;7.800;2022-11-09T09:39:42;19.70;95.20
1976;DHT22;988;48.016;7.800;2022-11-09T09:42:15;19.50;95.60
1976;DHT22;988;48.016;7.800;2022-11-09T09:47:58;19.50;95.90
1976;DHT22;988;48.016;7.800;2022-11-09T09:50:44;19.10;95.70
1976;DHT22;988;48.016;7.800;2022-11-09T09:53:29;18.80;96.00
1976;DHT22;988;48.016;7.800;2022-11-09T09:56:08;18.90;96.60
1976;DHT22;988;48.016;7.800;2022-11-09T09:58:38;18.80;95.30
1976;DHT22;988;48.016;7.800;2022-11-09T10:01:20;18.80;95.80
1976;DHT22;988;48.016;7.800;2022-11-09T10:03:48;18.50;95.50
1976;DHT22;988;48.016;7.800;2022-11-09T10:17:19;18.00;97.00
1976;DHT22;988;48.016;7.800;2022-11-09T10:25:26;17.70;97.60
1976;DHT22;988;48.016;7.800;2022-11-09T10:27:55;17.80;97.60
1976;DHT22;988;48.016;7.800;2022-11-09T10:30:23;17.60;98.10
1976;DHT22;988;48.016;7.800;2022-11-09T10:33:15;17.60;98.50
1976;DHT22;988;48.016;7.800;2022-11-09T10:36:01;17.40;98.90
1976;DHT22;988;48.016;7.800;2022-11-09T10:38:31;17.40;99.90
1976;DHT22;988;48.016;7.800;2022-11-09T10:43:30;17.30;99.90
1976;DHT22;988;48.016;7.800;2022-11-09T10:46:01;17.40;99.90
1976;DHT22;988;48.016;7.800;2022-11-09T10:48:39;17.40;99.90
1976;DHT22;988;48.016;7.800;2022-11-09T10:51:24;17.40;99.90
1976;DHT22;988;48.016;7.800;2022-11-09T10:54:18;17.50;99.90
1976;DHT22;988;48.016;7.800;2022-11-09T10:56:47;17.50;99.90
1976;DHT22;988;48.016;7.800;2022-11-09T11:02:01;17.70;99.90
1976;DHT22;988;48.016;7.800;2022-11-09T11:04:26;17.90;99.90
1976;DHT22;988;48.016;7.800;2022-11-09T11:06:52;17.80;99.90
1976;DHT22;988;48.016;7.800;2022-11-09T11:09:21;17.70;99.90
1976;DHT22;988;48.016;7.800;2022-11-09T11:11:47;17.60;99.90
1976;DHT22;988;48.016;7.800;2022-11-09T11:16:50;17.50;99.90
1976;DHT22;988;48.016;7.800;2022-11-09T11:19:38;17.50;99.90
1976;DHT22;988;48.016;7.800;2022-11-09T11:25:10;17.30;99.90
1976;DHT22;988;48.016;7.800;2022-11-09T11:27:52;17.30;99.90
1976;DHT22;988;48.016;7.800;2022-11-09T11:30:24;17.30;99.90
1976;DHT22;988;48.016;7.800;2022-11-09T11:32:56;17.30;99.90
1976;DHT22;988;48.016;7.800;2022-11-09T11:38:04;17.30;99.90
1976;DHT22;988;48.016;7.800;2022-11-09T11:40:37;17.10;99.90
1976;DHT22;988;48.016;7.800;2022-11-09T11:43:23;17.30;99.90
1976;DHT22;988;48.016;7.800;2022-11-09T11:46:14;17.30;99.90
1976;DHT22;988;48.016;7.800;2022-11-09T11:52:22;17.60;99.90
1976;DHT22;988;48.016;7.800;2022-11-09T12:03:41;17.80;99.90
1976;DHT22;988;48.016;7.800;2022-11-09T12:06:52;17.80;99.90
1976;DHT22;988;48.016;7.800;2022-11-09T12:09:32;17.90;99.90
1976;DHT22;988;48.016;7.800;2022-11-09T12:12:11;18.10;99.90
1976;DHT22;988;48.016;7.800;2022-11-09T12:18:05;18.00;99.90
1976;DHT22;988;48.016;7.800;2022-11-09T12:22:58;18.00;99.90
1976;DHT22;988;48.016;7.800;2022-11-09T12:25:39;18.30;99.90
1976;DHT22;988;48.016;7.800;2022-11-09T12:31:27;18.20;99.90
1976;DHT22;988;48.016;7.800;2022-11-09T12:34:01;18.20;99.90
1976;DHT22;988;48.016;7.800;2022-11-09T12:37:00;18.10;99.90
1976;DHT22;988;48.016;7.800;2022-11-09T12:42:04;18.00;99.90
1976;DHT22;988;48.016;7.800;2022-11-09T12:44:39;17.90;99.90
1976;DHT22;988;48.016;7.800;2022-11-09T12:47:14;18.00;99.90
1976;DHT22;988;48.016;7.800;2022-11-09T12:49:43;17.70;99.90
1976;DHT22;988;48.016;7.800;2022-11-09T12:52:14;17.30;99.90
1976;DHT22;988;48.016;7.800;2022-11-09T12:54:47;17.20;99.90
1976;DHT22;988;48.016;7.800;2022-11-09T12:57:21;16.50;99.90
1976;DHT22;988;48.016;7.800;2022-11-09T12:59:52;16.00;99.90
1976;DHT22;988;48.016;7.800;2022-11-09T13:02:30;15.90;99.90
1976;DHT22;988;48.016;7.800;2022-11-09T13:04:58;16.10;99.90
1976;DHT22;988;48.016;7.800;2022-11-09T13:07:48;15.70;99.90
1976;DHT22;988;48.016;7.800;2022-11-09T13:10:33;15.60;99.90
1976;DHT22;988;48.016;7.800;2022-11-09T13:13:24;15.50;99.90
1976;DHT22;988;48.016;7.800;2022-11-09T13:23:45;15.40;99.90
1976;DHT22;988;48.016;7.800;2022-11-09T13:39:59;15.30;99.90
1976;DHT22;988;48.016;7.800;2022-11-09T13:42:30;15.40;99.90
1976;DHT22;988;48.016;7.800;2022-11-09T13:45:25;15.30;99.90
1976;DHT22;988;48.016;7.800;2022-11-09T13:47:51;15.40;99.90
1976;DHT22;988;48.016;7.800;2022-11-09T13:50:19;15.50;99.90
1976;DHT22;988;48.016;7.800;2022-11-09T13:52:50;15.50;99.90
1976;DHT22;988;48.016;7.800;2022-11-09T13:55:39;15.50;99.90
1976;DHT22;988;48.016;7.800;2022-11-09T13:58:30;15.60;99.90
1976;DHT22;988;48.016;7.800;2022-11-09T14:00:57;15.50;99.90
1976;DHT22;988;48.016;7.800;2022-11-09T14:03:26;15.60;99.90
1976;DHT22;988;48.016;7.800;2022-11-09T14:05:56;15.50;99.90
1976;DHT22;988;48.016;7.800;2022-11-09T14:11:32;15.30;99.90
1976;DHT22;988;48.016;7.800;2022-11-09T14:21:52;15.60;99.90
1976;DHT22;988;48.016;7.800;2022-11-09T14:24:22;15.60;99.90
1976;DHT22;988;48.016;7.800;2022-11-09T14:29:33;15.50;99.90
1976;DHT22;988;48.016;7.800;2022-11-09T14:32:32;15.50;99.90
1976;DHT22;988;48.016;7.800;2022-11-09T14:35:19;15.60;99.90
1976;DHT22;988;48.016;7.800;2022-11-09T14:37:46;15.60;99.90
1976;DHT22;988;48.016;7.800;2022-11-09T14:40:32;15.50;99.90
1976;DHT22;988;48.016;7.800;2022-11-09T14:45:48;15.60;99.90
1976;DHT22;988;48.016;7.800;2022-11-09T14:48:17;15.50;99.90
1976;DHT22;988;48.016;7.800;2022-11-09T14:50:43;15.40;99.90
1976;DHT22;988;48.016;7.800;2022-11-09T14:53:21;15.50;99.90
1976;DHT22;988;48.016;7.800;2022-11-09T14:55:51;15.40;99.90
1976;DHT22;988;48.016;7.800;2022-11-09T14:58:21;15.20;99.90
1976;DHT22;988;48.016;7.800;2022-11-09T15:03:34;15.10;99.90
1976;DHT22;988;48.016;7.800;2022-11-09T15:06:14;15.10;99.90
1976;DHT22;988;48.016;7.800;2022-11-09T15:08:55;15.10;99.90
1976;DHT22;988;48.016;7.800;2022-11-09T15:11:34;15.10;99.90
1976;DHT22;988;48.016;7.800;2022-11-09T15:16:42;15.00;99.90
1976;DHT22;988;48.016;7.800;2022-11-09T15:21:45;14.90;99.90
1976;DHT22;988;48.016;7.800;2022-11-09T15:24:15;14.80;99.90
1976;DHT22;988;48.016;7.800;2022-11-09T15:26:46;14.70;99.90
1976;DHT22;988;48.016;7.800;2022-11-09T15:29:34;14.80;99.90
1976;DHT22;988;48.016;7.800;2022-11-09T15:34:37;14.60;99.90
1976;DHT22;988;48.016;7.800;2022-11-09T15:37:03;14.60;99.90
1976;DHT22;988;48.016;7.800;2022-11-09T15:39:42;14.60;99.90
1976;DHT22;988;48.016;7.800;2022-11-09T15:42:12;14.60;99.90
1976;DHT22;988;48.016;7.800;2022-11-09T15:44:40;14.80;99.90
1976;DHT22;988;48.016;7.800;2022-11-09T15:47:33;14.80;99.90
1976;DHT22;988;48.016;7.800;2022-11-09T15:50:03;14.70;99.90
1976;DHT22;988;48.016;7.800;2022-11-09T15:52:30;14.70;99.90
1976;DHT22;988;48.016;7.800;2022-11-09T15:54:56;14.60;99.90
1976;DHT22;988;48.016;7.800;2022-11-09T15:57:22;14.60;99.90
1976;DHT22;988;48.016;7.800;2022-11-09T15:59:49;14.70;99.90
1976;DHT22;988;48.016;7.800;2022-11-09T16:02:16;14.60;99.90
1976;DHT22;988;48.016;7.800;2022-11-09T16:04:44;14.50;99.90
1976;DHT22;988;48.016;7.800;2022-11-09T16:07:13;14.60;99.90
1976;DHT22;988;48.016;7.800;2022-11-09T16:09:39;14.50;99.90
1976;DHT22;988;48.016;7.800;2022-11-09T16:12:06;14.60;99.90
1976;DHT22;988;48.016;7.800;2022-11-09T16:14:32;14.50;99.90
1976;DHT22;988;48.016;7.800;2022-11-09T16:16:58;14.60;99.90
1976;DHT22;988;48.016;7.800;2022-11-09T16:19:23;14.50;99.90
1976;DHT22;988;48.016;7.800;2022-11-09T16:21:53;14.50;99.90
1976;DHT22;988;48.016;7.800;2022-11-09T16:24:19;14.50;99.90
1976;DHT22;988;48.016;7.800;2022-11-09T16:26:44;14.50;99.90
1976;DHT22;988;48.016;7.800;2022-11-09T16:29:11;14.30;99.90
1976;DHT22;988;48.016;7.800;2022-11-09T16:31:36;14.30;99.90
1976;DHT22;988;48.016;7.800;2022-11-09T16:34:02;14.50;99.90
1976;DHT22;988;48.016;7.800;2022-11-09T16:36:28;14.30;99.90
1976;DHT22;988;48.016;7.800;2022-11-09T16:38:55;14.30;99.90
1976;DHT22;988;48.016;7.800;2022-11-09T16:41:21;14.20;99.90
1976;DHT22;988;48.016;7.800;2022-11-09T16:43:50;14.30;99.90
1976;DHT22;988;48.016;7.800;2022-11-09T16:46:20;14.50;99.90
1976;DHT22;988;48.016;7.800;2022-11-09T16:48:46;14.30;99.90
1976;DHT22;988;48.016;7.800;2022-11-09T16:51:12;14.40;99.90
1976;DHT22;988;48.016;7.800;2022-11-09T16:53:37;14.50;99.90
1976;DHT22;988;48.016;7.800;2022-11-09T16:56:03;14.20;99.90
1976;DHT22;988;48.016;7.800;2022-11-09T16:58:29;14.20;99.90
1976;DHT22;988;48.016;7.800;2022-11-09T17:00:55;14.20;99.90
1976;DHT22;988;48.016;7.800;2022-11-09T17:03:20;14.40;99.90
1976;DHT22;988;48.016;7.800;2022-11-09T17:05:46;14.20;99.90
1976;DHT22;988;48.016;7.800;2022-11-09T17:08:12;14.10;99.90
1976;DHT22;988;48.016;7.800;2022-11-09T17:10:42;13.90;99.90
1976;DHT22;988;48.016;7.800;2022-11-09T17:13:09;14.10;99.90
1976;DHT22;988;48.016;7.800;2022-11-09T17:15:43;14.00;99.90
1976;DHT22;988;48.016;7.800;2022-11-09T17:18:09;13.90;99.90
1976;DHT22;988;48.016;7.800;2022-11-09T17:20:42;14.00;99.90
1976;DHT22;988;48.016;7.800;2022-11-09T17:23:09;13.90;99.90
1976;DHT22;988;48.016;7.800;2022-11-09T17:25:36;14.00;99.90
1976;DHT22;988;48.016;7.800;2022-11-09T17:28:02;13.80;99.90
1976;DHT22;988;48.016;7.800;2022-11-09T17:30:28;13.80;99.90
1976;DHT22;988;48.016;7.800;2022-11-09T17:32:53;13.70;99.90
1976;DHT22;988;48.016;7.800;2022-11-09T17:35:20;13.90;99.90
1976;DHT22;988;48.016;7.800;2022-11-09T17:37:46;13.80;99.90
1976;DHT22;988;48.016;7.800;2022-11-09T17:40:12;13.90;99.90
1976;DHT22;988;48.016;7.800;2022-11-09T17:42:44;13.80;99.90
1976;DHT22;988;48.016;7.800;2022-11-09T17:45:10;13.70;99.90
1976;DHT22;988;48.016;7.800;2022-11-09T17:47:36;13.80;99.90
1976;DHT22;988;48.016;7.800;2022-11-09T17:50:02;13.80;99.90
1976;DHT22;988;48.016;7.800;2022-11-09T17:52:27;13.70;99.90
1976;DHT22;988;48.016;7.800;2022-11-09T17:54:53;13.60;99.90
1976;DHT22;988;48.016;7.800;2022-11-09T17:57:18;13.80;99.90
1976;DHT22;988;48.016;7.800;2022-11-09T17:59:44;13.80;99.90
1976;DHT22;988;48.016;7.800;2022-11-09T18:02:10;13.80;99.90
1976;DHT22;988;48.016;7.800;2022-11-09T18:04:36;13.90;99.90
1976;DHT22;988;48.016;7.800;2022-11-09T18:07:02;13.90;99.90
1976;DHT22;988;48.016;7.800;2022-11-09T18:09:27;14.10;99.90
1976;DHT22;988;48.016;7.800;2022-11-09T18:12:10;13.90;99.90
1976;DHT22;988;48.016;7.800;2022-11-09T18:14:37;13.80;99.90
1976;DHT22;988;48.016;7.800;2022-11-09T18:17:03;14.00;99.90
1976;DHT22;988;48.016;7.800;2022-11-09T18:19:28;14.10;99.90